createdAt,value
2017-12-16T00:00:51.796Z,999.13
2017-12-16T00:01:51.783Z,999.12
2017-12-16T00:02:51.776Z,999.14
2017-12-16T00:03:51.790Z,999.17
2017-12-16T00:04:51.752Z,999.19
2017-12-16T00:05:51.739Z,999.23
2017-12-16T00:06:51.721Z,999.25
2017-12-16T00:07:51.710Z,999.21
2017-12-16T00:08:51.697Z,999.29
2017-12-16T00:09:51.684Z,999.29
2017-12-16T00:10:51.676Z,999.26
2017-12-16T00:11:51.663Z,999.25
2017-12-16T00:12:51.650Z,999.31
2017-12-16T00:13:51.638Z,999.33
2017-12-16T00:14:51.627Z,999.30
2017-12-16T00:15:51.614Z,999.34
2017-12-16T00:16:51.602Z,999.38
2017-12-16T00:17:51.588Z,999.39
2017-12-16T00:18:51.574Z,999.35
2017-12-16T00:19:51.559Z,999.45
2017-12-16T00:20:51.547Z,999.41
2017-12-16T00:21:51.535Z,999.37
2017-12-16T00:22:51.528Z,999.35
2017-12-16T00:23:51.510Z,999.44
2017-12-16T00:24:51.505Z,999.44
2017-12-16T00:25:51.483Z,999.43
2017-12-16T00:26:51.482Z,999.45
2017-12-16T00:27:51.465Z,999.44
2017-12-16T00:28:51.452Z,999.50
2017-12-16T00:29:51.438Z,999.47
2017-12-16T00:30:51.427Z,999.55
2017-12-16T00:31:51.416Z,999.51
2017-12-16T00:32:51.403Z,999.55
2017-12-16T00:33:51.392Z,999.52
2017-12-16T00:34:51.372Z,999.52
2017-12-16T00:35:51.360Z,999.57
2017-12-16T00:36:51.348Z,999.56
2017-12-16T00:37:51.335Z,999.55
2017-12-16T00:38:51.322Z,999.62
2017-12-16T00:39:51.310Z,999.67
2017-12-16T00:40:51.298Z,999.66
2017-12-16T00:41:51.283Z,999.63
2017-12-16T00:42:51.277Z,999.68
2017-12-16T00:43:51.269Z,999.67
2017-12-16T00:44:51.252Z,999.69
2017-12-16T00:45:51.239Z,999.65
2017-12-16T00:46:51.231Z,999.67
2017-12-16T00:47:51.215Z,999.67
2017-12-16T00:48:51.203Z,999.67
2017-12-16T00:49:51.189Z,999.62
2017-12-16T00:50:51.173Z,999.66
2017-12-16T00:51:51.161Z,999.65
2017-12-16T00:52:51.149Z,999.62
2017-12-16T00:53:51.134Z,999.64
2017-12-16T00:54:51.123Z,999.65
2017-12-16T00:55:51.110Z,999.65
2017-12-16T00:56:51.098Z,999.67
2017-12-16T00:57:51.085Z,999.70
2017-12-16T00:58:51.077Z,999.74
2017-12-16T00:59:51.064Z,999.76
2017-12-16T01:00:51.053Z,999.73
2017-12-16T01:01:51.039Z,999.80
2017-12-16T01:02:51.028Z,999.80
2017-12-16T01:03:51.014Z,999.81
2017-12-16T01:04:51.003Z,999.80
2017-12-16T01:05:50.989Z,999.74
2017-12-16T01:06:50.976Z,999.80
2017-12-16T01:07:50.962Z,999.80
2017-12-16T01:08:50.949Z,999.79
2017-12-16T01:09:50.936Z,999.79
2017-12-16T01:10:50.927Z,999.84
2017-12-16T01:11:50.915Z,999.84
2017-12-16T01:12:50.903Z,999.87
2017-12-16T01:13:50.890Z,999.92
2017-12-16T01:14:50.873Z,999.92
2017-12-16T01:15:50.862Z,999.91
2017-12-16T01:16:50.851Z,999.94
2017-12-16T01:17:50.837Z,999.97
2017-12-16T01:18:50.825Z,999.91
2017-12-16T01:19:50.812Z,999.91
2017-12-16T01:20:50.800Z,999.98
2017-12-16T01:21:50.788Z,999.94
2017-12-16T01:22:50.779Z,999.96
2017-12-16T01:23:50.766Z,999.99
2017-12-16T01:24:50.759Z,999.97
2017-12-16T01:25:50.741Z,999.92
2017-12-16T01:26:50.730Z,1000.00
2017-12-16T01:27:50.717Z,1000.01
2017-12-16T01:28:50.705Z,1000.09
2017-12-16T01:29:50.693Z,1000.09
2017-12-16T01:30:50.676Z,1000.04
2017-12-16T01:31:50.664Z,1000.14
2017-12-16T01:32:50.652Z,1000.10
2017-12-16T01:33:50.640Z,1000.16
2017-12-16T01:34:50.627Z,1000.17
2017-12-16T01:35:50.615Z,1000.18
2017-12-16T01:36:50.602Z,1000.19
2017-12-16T01:37:50.589Z,1000.17
2017-12-16T01:38:50.582Z,1000.19
2017-12-16T01:39:50.570Z,1000.19
2017-12-16T01:40:50.558Z,1000.22
2017-12-16T01:41:50.544Z,1000.22
2017-12-16T01:42:50.532Z,1000.22
2017-12-16T01:43:50.521Z,1000.28
2017-12-16T01:44:50.515Z,1000.21
2017-12-16T01:45:50.498Z,1000.22
2017-12-16T01:46:50.480Z,1000.25
2017-12-16T01:47:50.467Z,1000.33
2017-12-16T01:48:50.455Z,1000.31
2017-12-16T01:49:50.445Z,1000.36
2017-12-16T01:50:50.431Z,1000.28
2017-12-16T01:51:50.417Z,1000.33
2017-12-16T01:52:50.407Z,1000.33
2017-12-16T01:53:50.393Z,1000.30
2017-12-16T01:54:50.389Z,1000.36
2017-12-16T01:55:50.373Z,1000.32
2017-12-16T01:56:50.361Z,1000.34
2017-12-16T01:57:50.347Z,1000.34
2017-12-16T01:58:50.335Z,1000.34
2017-12-16T01:59:50.323Z,1000.39
2017-12-16T02:00:50.315Z,1000.40
2017-12-16T02:01:50.298Z,1000.46
2017-12-16T02:02:50.283Z,1000.46
2017-12-16T02:03:50.269Z,1000.45
2017-12-16T02:04:50.258Z,1000.49
2017-12-16T02:05:50.245Z,1000.49
2017-12-16T02:06:50.232Z,1000.52
2017-12-16T02:07:50.219Z,1000.55
2017-12-16T02:08:50.209Z,1000.62
2017-12-16T02:09:50.196Z,1000.64
2017-12-16T02:10:50.191Z,1000.60
2017-12-16T02:11:50.176Z,1000.62
2017-12-16T02:12:50.163Z,1000.67
2017-12-16T02:13:50.150Z,1000.65
2017-12-16T02:14:50.134Z,1000.69
2017-12-16T02:15:50.123Z,1000.65
2017-12-16T02:16:50.110Z,1000.67
2017-12-16T02:17:50.096Z,1000.67
2017-12-16T02:18:50.090Z,1000.67
2017-12-16T02:19:50.076Z,1000.73
2017-12-16T02:20:50.065Z,1000.73
2017-12-16T02:21:50.052Z,1000.67
2017-12-16T02:22:50.040Z,1000.68
2017-12-16T02:23:50.028Z,1000.67
2017-12-16T02:24:50.016Z,1000.68
2017-12-16T02:25:50.003Z,1000.72
2017-12-16T02:26:49.986Z,1000.72
2017-12-16T02:27:49.975Z,1000.74
2017-12-16T02:28:49.963Z,1000.77
2017-12-16T02:29:49.950Z,1000.70
2017-12-16T02:30:49.937Z,1000.77
2017-12-16T02:31:49.926Z,1000.73
2017-12-16T02:32:49.923Z,1000.80
2017-12-16T02:33:49.903Z,1000.80
2017-12-16T02:34:49.901Z,1000.77
2017-12-16T02:35:49.880Z,1000.80
2017-12-16T02:36:49.868Z,1000.81
2017-12-16T02:37:49.856Z,1000.82
2017-12-16T02:38:49.842Z,1000.78
2017-12-16T02:39:49.833Z,1000.81
2017-12-16T02:40:49.819Z,1000.77
2017-12-16T02:41:49.808Z,1000.79
2017-12-16T02:42:49.790Z,1000.74
2017-12-16T02:43:49.780Z,1000.85
2017-12-16T02:44:49.767Z,1000.86
2017-12-16T02:45:49.758Z,1000.89
2017-12-16T02:46:49.741Z,1000.91
2017-12-16T02:47:49.729Z,1000.86
2017-12-16T02:48:49.717Z,1000.83
2017-12-16T02:49:49.705Z,1000.85
2017-12-16T02:50:49.697Z,1000.87
2017-12-16T02:51:49.685Z,1000.86
2017-12-16T02:52:49.674Z,1000.89
2017-12-16T02:53:49.661Z,1000.90
2017-12-16T02:54:49.647Z,1000.91
2017-12-16T02:55:49.636Z,1000.93
2017-12-16T02:56:49.624Z,1000.93
2017-12-16T02:57:49.611Z,1000.93
2017-12-16T02:58:49.596Z,1000.94
2017-12-16T02:59:49.583Z,1000.94
2017-12-16T03:00:49.571Z,1001.01
2017-12-16T03:01:49.558Z,1001.01
2017-12-16T03:02:49.546Z,1001.08
2017-12-16T03:03:49.534Z,1001.06
2017-12-16T03:04:49.523Z,1001.07
2017-12-16T03:05:49.509Z,1001.07
2017-12-16T03:06:49.502Z,1001.07
2017-12-16T03:07:49.490Z,1001.12
2017-12-16T03:08:49.477Z,1001.06
2017-12-16T03:09:49.463Z,1001.13
2017-12-16T03:10:49.452Z,1001.11
2017-12-16T03:11:49.451Z,1001.11
2017-12-16T03:12:49.429Z,1001.14
2017-12-16T03:13:49.414Z,1001.11
2017-12-16T03:14:49.405Z,1001.16
2017-12-16T03:15:49.385Z,1001.18
2017-12-16T03:16:49.372Z,1001.17
2017-12-16T03:17:49.360Z,1001.23
2017-12-16T03:18:49.348Z,1001.24
2017-12-16T03:19:49.334Z,1001.23
2017-12-16T03:20:49.323Z,1001.20
2017-12-16T03:21:49.309Z,1001.25
2017-12-16T03:22:49.300Z,1001.25
2017-12-16T03:23:49.289Z,1001.28
2017-12-16T03:24:49.277Z,1001.30
2017-12-16T03:25:49.265Z,1001.30
2017-12-16T03:26:49.252Z,1001.29
2017-12-16T03:27:49.239Z,1001.28
2017-12-16T03:28:49.226Z,1001.34
2017-12-16T03:29:49.212Z,1001.32
2017-12-16T03:30:49.197Z,1001.33
2017-12-16T03:31:49.184Z,1001.37
2017-12-16T03:32:49.170Z,1001.37
2017-12-16T03:33:49.157Z,1001.35
2017-12-16T03:34:49.146Z,1001.45
2017-12-16T03:35:49.131Z,1001.43
2017-12-16T03:36:49.119Z,1001.45
2017-12-16T03:37:49.106Z,1001.50
2017-12-16T03:38:49.098Z,1001.50
2017-12-16T03:39:49.086Z,1001.53
2017-12-16T03:40:49.073Z,1001.57
2017-12-16T03:41:49.058Z,1001.53
2017-12-16T03:42:49.052Z,1001.52
2017-12-16T03:43:49.033Z,1001.57
2017-12-16T03:44:49.020Z,1001.62
2017-12-16T03:45:49.007Z,1001.56
2017-12-16T03:46:48.990Z,1001.61
2017-12-16T03:47:48.976Z,1001.58
2017-12-16T03:48:48.964Z,1001.63
2017-12-16T03:49:48.952Z,1001.57
2017-12-16T03:50:48.937Z,1001.65
2017-12-16T03:51:48.925Z,1001.67
2017-12-16T03:52:48.916Z,1001.70
2017-12-16T03:53:48.899Z,1001.71
2017-12-16T03:54:48.891Z,1001.73
2017-12-16T03:55:48.876Z,1001.67
2017-12-16T03:56:48.866Z,1001.71
2017-12-16T03:57:48.852Z,1001.77
2017-12-16T03:58:48.838Z,1001.76
2017-12-16T03:59:48.827Z,1001.72
2017-12-16T04:00:48.815Z,1001.77
2017-12-16T04:01:48.800Z,1001.72
2017-12-16T04:02:48.782Z,1001.78
2017-12-16T04:03:48.771Z,1001.79
2017-12-16T04:04:48.757Z,1001.79
2017-12-16T04:05:48.745Z,1001.76
2017-12-16T04:06:48.739Z,1001.82
2017-12-16T04:07:48.720Z,1001.82
2017-12-16T04:08:48.707Z,1001.83
2017-12-16T04:09:48.694Z,1001.85
2017-12-16T04:10:48.685Z,1001.79
2017-12-16T04:11:48.672Z,1001.79
2017-12-16T04:12:48.661Z,1001.82
2017-12-16T04:13:48.647Z,1001.82
2017-12-16T04:14:48.635Z,1001.83
2017-12-16T04:15:48.623Z,1001.85
2017-12-16T04:16:48.614Z,1001.86
2017-12-16T04:17:48.595Z,1001.85
2017-12-16T04:18:48.578Z,1001.84
2017-12-16T04:19:48.605Z,1001.83
2017-12-16T04:20:48.557Z,1001.87
2017-12-16T04:21:48.541Z,1001.84
2017-12-16T04:22:48.532Z,1001.87
2017-12-16T04:23:48.521Z,1001.86
2017-12-16T04:24:48.508Z,1001.90
2017-12-16T04:25:48.496Z,1001.90
2017-12-16T04:26:48.479Z,1001.92
2017-12-16T04:27:48.467Z,1001.90
2017-12-16T04:28:48.458Z,1001.89
2017-12-16T04:29:48.441Z,1001.88
2017-12-16T04:30:48.428Z,1001.96
2017-12-16T04:31:48.416Z,1001.94
2017-12-16T04:32:48.404Z,1001.98
2017-12-16T04:33:48.391Z,1001.93
2017-12-16T04:34:48.383Z,1001.94
2017-12-16T04:35:48.370Z,1001.98
2017-12-16T04:36:48.359Z,1002.00
2017-12-16T04:37:48.345Z,1002.00
2017-12-16T04:38:48.333Z,1002.04
2017-12-16T04:39:48.320Z,1002.04
2017-12-16T04:40:48.308Z,1002.06
2017-12-16T04:41:48.294Z,1002.13
2017-12-16T04:42:48.278Z,1002.10
2017-12-16T04:43:48.265Z,1002.13
2017-12-16T04:44:48.253Z,1002.13
2017-12-16T04:45:48.240Z,1002.12
2017-12-16T04:46:48.229Z,1002.07
2017-12-16T04:47:48.217Z,1002.12
2017-12-16T04:48:48.204Z,1002.10
2017-12-16T04:49:48.192Z,1002.08
2017-12-16T04:50:48.201Z,1002.10
2017-12-16T04:51:48.171Z,1002.09
2017-12-16T04:52:48.157Z,1002.05
2017-12-16T04:53:48.145Z,1002.07
2017-12-16T04:54:48.133Z,1002.12
2017-12-16T04:55:48.120Z,1002.11
2017-12-16T04:56:48.109Z,1002.16
2017-12-16T04:57:48.095Z,1002.09
2017-12-16T04:58:48.079Z,1002.09
2017-12-16T04:59:48.067Z,1002.16
2017-12-16T05:00:48.055Z,1002.11
2017-12-16T05:01:48.040Z,1002.14
2017-12-16T05:02:48.029Z,1002.14
2017-12-16T05:03:48.018Z,1002.17
2017-12-16T05:04:48.005Z,1002.19
2017-12-16T05:05:47.992Z,1002.18
2017-12-16T05:06:47.984Z,1002.21
2017-12-16T05:07:47.972Z,1002.21
2017-12-16T05:08:47.958Z,1002.22
2017-12-16T05:09:47.946Z,1002.21
2017-12-16T05:10:47.956Z,1002.23
2017-12-16T05:11:47.923Z,1002.25
2017-12-16T05:12:47.911Z,1002.30
2017-12-16T05:13:47.897Z,1002.32
2017-12-16T05:14:47.880Z,1002.32
2017-12-16T05:15:47.871Z,1002.34
2017-12-16T05:16:47.857Z,1002.37
2017-12-16T05:17:47.843Z,1002.35
2017-12-16T05:18:47.832Z,1002.40
2017-12-16T05:19:47.819Z,1002.43
2017-12-16T05:20:47.808Z,1002.43
2017-12-16T05:21:47.794Z,1002.40
2017-12-16T05:22:47.786Z,1002.47
2017-12-16T05:23:47.774Z,1002.40
2017-12-16T05:24:47.763Z,1002.45
2017-12-16T05:25:47.749Z,1002.37
2017-12-16T05:26:47.732Z,1002.35
2017-12-16T05:27:47.722Z,1002.35
2017-12-16T05:28:47.709Z,1002.33
2017-12-16T05:29:47.695Z,1002.39
2017-12-16T05:30:47.687Z,1002.39
2017-12-16T05:31:47.676Z,1002.36
2017-12-16T05:32:47.664Z,1002.39
2017-12-16T05:33:47.652Z,1002.37
2017-12-16T05:34:47.639Z,1002.36
2017-12-16T05:35:47.626Z,1002.41
2017-12-16T05:36:47.616Z,1002.41
2017-12-16T05:37:47.601Z,1002.48
2017-12-16T05:38:47.585Z,1002.47
2017-12-16T05:39:47.593Z,1002.50
2017-12-16T05:40:47.562Z,1002.55
2017-12-16T05:41:47.550Z,1002.57
2017-12-16T05:42:47.538Z,1002.54
2017-12-16T05:43:47.526Z,1002.62
2017-12-16T05:44:47.524Z,1002.58
2017-12-16T05:45:47.501Z,1002.57
2017-12-16T05:46:47.493Z,1002.57
2017-12-16T05:47:47.482Z,1002.59
2017-12-16T05:48:47.477Z,1002.60
2017-12-16T05:49:47.457Z,1002.60
2017-12-16T05:50:47.444Z,1002.67
2017-12-16T05:51:47.433Z,1002.68
2017-12-16T05:52:47.420Z,1002.69
2017-12-16T05:53:47.407Z,1002.74
2017-12-16T05:54:47.392Z,1002.75
2017-12-16T05:55:47.379Z,1002.73
2017-12-16T05:56:47.369Z,1002.77
2017-12-16T05:57:47.356Z,1002.80
2017-12-16T05:58:47.344Z,1002.73
2017-12-16T05:59:47.332Z,1002.73
2017-12-16T06:00:47.322Z,1002.85
2017-12-16T06:01:47.307Z,1002.88
2017-12-16T06:02:47.298Z,1002.91
2017-12-16T06:03:47.289Z,1002.83
2017-12-16T06:04:47.277Z,1002.88
2017-12-16T06:05:47.264Z,1002.92
2017-12-16T06:06:47.252Z,1002.93
2017-12-16T06:07:47.241Z,1002.96
2017-12-16T06:08:47.228Z,1003.01
2017-12-16T06:09:47.216Z,1002.93
2017-12-16T06:10:47.199Z,1002.91
2017-12-16T06:11:47.188Z,1002.95
2017-12-16T06:12:47.175Z,1002.93
2017-12-16T06:13:47.163Z,1002.97
2017-12-16T06:14:47.152Z,1002.99
2017-12-16T06:15:47.139Z,1003.00
2017-12-16T06:16:47.128Z,1002.94
2017-12-16T06:17:47.116Z,1002.94
2017-12-16T06:18:47.109Z,1003.02
2017-12-16T06:19:47.096Z,1003.10
2017-12-16T06:20:47.085Z,1003.01
2017-12-16T06:21:47.072Z,1003.07
2017-12-16T06:22:47.064Z,1003.07
2017-12-16T06:23:47.051Z,1003.10
2017-12-16T06:24:47.036Z,1003.08
2017-12-16T06:25:47.024Z,1003.08
2017-12-16T06:26:47.008Z,1003.01
2017-12-16T06:27:46.996Z,1003.09
2017-12-16T06:28:46.986Z,1003.06
2017-12-16T06:29:46.973Z,1003.14
2017-12-16T06:30:46.965Z,1003.15
2017-12-16T06:31:46.953Z,1003.16
2017-12-16T06:32:46.942Z,1003.20
2017-12-16T06:33:46.930Z,1003.23
2017-12-16T06:34:46.912Z,1003.21
2017-12-16T06:35:46.902Z,1003.25
2017-12-16T06:36:46.889Z,1003.32
2017-12-16T06:37:46.877Z,1003.29
2017-12-16T06:38:46.866Z,1003.30
2017-12-16T06:39:46.854Z,1003.29
2017-12-16T06:40:46.841Z,1003.30
2017-12-16T06:41:46.829Z,1003.27
2017-12-16T06:42:46.822Z,1003.31
2017-12-16T06:43:46.810Z,1003.34
2017-12-16T06:44:46.797Z,1003.34
2017-12-16T06:45:46.786Z,1003.40
2017-12-16T06:46:46.777Z,1003.39
2017-12-16T06:47:46.762Z,1003.38
2017-12-16T06:48:46.751Z,1003.45
2017-12-16T06:49:46.738Z,1003.44
2017-12-16T06:50:46.724Z,1003.44
2017-12-16T06:51:46.710Z,1003.46
2017-12-16T06:52:46.697Z,1003.49
2017-12-16T06:53:46.686Z,1003.48
2017-12-16T06:54:46.674Z,1003.54
2017-12-16T06:55:46.661Z,1003.53
2017-12-16T06:56:46.651Z,1003.56
2017-12-16T06:57:46.638Z,1003.52
2017-12-16T06:58:46.630Z,1003.57
2017-12-16T06:59:46.619Z,1003.61
2017-12-16T07:00:46.606Z,1003.57
2017-12-16T07:01:46.593Z,1003.59
2017-12-16T07:02:46.583Z,1003.57
2017-12-16T07:03:46.571Z,1003.59
2017-12-16T07:04:46.558Z,1003.59
2017-12-16T07:05:46.545Z,1003.62
2017-12-16T07:06:46.530Z,1003.64
2017-12-16T07:07:46.573Z,1003.65
2017-12-16T07:08:46.507Z,1003.69
2017-12-16T07:09:46.495Z,1003.65
2017-12-16T07:10:46.482Z,1003.70
2017-12-16T07:11:46.470Z,1003.71
2017-12-16T07:12:46.464Z,1003.71
2017-12-16T07:13:46.445Z,1003.73
2017-12-16T07:14:46.479Z,1003.71
2017-12-16T07:15:46.425Z,1003.70
2017-12-16T07:16:46.414Z,1003.82
2017-12-16T07:17:46.401Z,1003.80
2017-12-16T07:18:46.388Z,1003.86
2017-12-16T07:19:46.377Z,1003.93
2017-12-16T07:20:46.365Z,1003.89
2017-12-16T07:21:46.351Z,1003.90
2017-12-16T07:22:46.336Z,1003.89
2017-12-16T07:23:46.325Z,1003.91
2017-12-16T07:24:46.313Z,1003.92
2017-12-16T07:25:46.299Z,1003.94
2017-12-16T07:26:46.287Z,1003.96
2017-12-16T07:27:46.276Z,1003.98
2017-12-16T07:28:46.262Z,1003.96
2017-12-16T07:29:46.251Z,1004.05
2017-12-16T07:30:46.244Z,1004.08
2017-12-16T07:31:46.231Z,1004.09
2017-12-16T07:32:46.218Z,1004.09
2017-12-16T07:33:46.205Z,1004.08
2017-12-16T07:34:46.195Z,1004.11
2017-12-16T07:35:46.181Z,1004.11
2017-12-16T07:36:46.170Z,1004.13
2017-12-16T07:37:46.157Z,1004.14
2017-12-16T07:38:46.141Z,1004.21
2017-12-16T07:39:46.128Z,1004.19
2017-12-16T07:40:46.118Z,1004.21
2017-12-16T07:41:46.104Z,1004.17
2017-12-16T07:42:46.091Z,1004.23
2017-12-16T07:43:46.079Z,1004.27
2017-12-16T07:44:46.066Z,1004.27
2017-12-16T07:45:46.054Z,1004.34
2017-12-16T07:46:46.046Z,1004.36
2017-12-16T07:47:46.034Z,1004.42
2017-12-16T07:48:46.021Z,1004.36
2017-12-16T07:49:46.008Z,1004.39
2017-12-16T07:50:46.000Z,1004.44
2017-12-16T07:51:45.983Z,1004.48
2017-12-16T07:52:45.977Z,1004.44
2017-12-16T07:53:45.958Z,1004.54
2017-12-16T07:54:45.941Z,1004.53
2017-12-16T07:55:45.929Z,1004.58
2017-12-16T07:56:45.917Z,1004.60
2017-12-16T07:57:45.909Z,1004.60
2017-12-16T07:58:45.892Z,1004.65
2017-12-16T07:59:45.878Z,1004.59
2017-12-16T08:00:45.867Z,1004.55
2017-12-16T08:01:45.853Z,1004.63
2017-12-16T08:02:45.845Z,1004.67
2017-12-16T08:03:45.838Z,1004.65
2017-12-16T08:04:45.824Z,1004.75
2017-12-16T08:05:45.808Z,1004.75
2017-12-16T08:06:45.795Z,1004.72
2017-12-16T08:07:45.784Z,1004.75
2017-12-16T08:08:45.772Z,1004.81
2017-12-16T08:09:45.766Z,1004.78
2017-12-16T08:10:45.741Z,1004.84
2017-12-16T08:11:45.730Z,1004.86
2017-12-16T08:12:45.718Z,1004.88
2017-12-16T08:13:45.704Z,1004.95
2017-12-16T08:14:45.694Z,1004.95
2017-12-16T08:15:45.680Z,1004.94
2017-12-16T08:16:45.670Z,1005.02
2017-12-16T08:17:45.661Z,1004.95
2017-12-16T08:18:45.648Z,1005.04
2017-12-16T08:19:45.637Z,1005.04
2017-12-16T08:20:45.623Z,1005.03
2017-12-16T08:21:45.611Z,1005.09
2017-12-16T08:22:45.600Z,1005.06
2017-12-16T08:23:45.589Z,1005.04
2017-12-16T08:24:45.577Z,1005.03
2017-12-16T08:25:45.563Z,1005.09
2017-12-16T08:26:45.548Z,1005.06
2017-12-16T08:27:45.535Z,1005.06
2017-12-16T08:28:45.522Z,1005.08
2017-12-16T08:29:45.510Z,1005.08
2017-12-16T08:30:45.498Z,1005.08
2017-12-16T08:31:45.487Z,1005.16
2017-12-16T08:32:45.474Z,1005.13
2017-12-16T08:33:45.461Z,1005.22
2017-12-16T08:34:45.455Z,1005.23
2017-12-16T08:35:45.444Z,1005.20
2017-12-16T08:36:45.431Z,1005.24
2017-12-16T08:37:45.418Z,1005.25
2017-12-16T08:38:45.449Z,1005.25
2017-12-16T08:39:45.390Z,1005.25
2017-12-16T08:40:45.378Z,1005.26
2017-12-16T08:41:45.371Z,1005.36
2017-12-16T08:42:45.357Z,1005.31
2017-12-16T08:43:45.346Z,1005.35
2017-12-16T08:44:45.333Z,1005.32
2017-12-16T08:45:45.320Z,1005.40
2017-12-16T08:46:45.309Z,1005.49
2017-12-16T08:47:45.296Z,1005.41
2017-12-16T08:48:45.285Z,1005.46
2017-12-16T08:49:45.273Z,1005.50
2017-12-16T08:50:45.257Z,1005.55
2017-12-16T08:51:45.246Z,1005.50
2017-12-16T08:52:45.234Z,1005.57
2017-12-16T08:53:45.221Z,1005.61
2017-12-16T08:54:45.209Z,1005.59
2017-12-16T08:55:45.197Z,1005.60
2017-12-16T08:56:45.186Z,1005.66
2017-12-16T08:57:45.174Z,1005.66
2017-12-16T08:58:45.167Z,1005.69
2017-12-16T08:59:45.156Z,1005.77
2017-12-16T09:00:45.144Z,1005.73
2017-12-16T09:01:45.132Z,1005.74
2017-12-16T09:02:45.120Z,1005.76
2017-12-16T09:03:45.108Z,1005.72
2017-12-16T09:04:45.097Z,1005.77
2017-12-16T09:05:45.086Z,1005.81
2017-12-16T09:06:45.070Z,1005.81
2017-12-16T09:07:45.058Z,1005.92
2017-12-16T09:08:45.047Z,1005.91
2017-12-16T09:09:45.036Z,1005.92
2017-12-16T09:10:45.026Z,1005.99
2017-12-16T09:11:45.015Z,1006.03
2017-12-16T09:12:45.003Z,1006.10
2017-12-16T09:13:44.992Z,1006.09
2017-12-16T09:14:44.985Z,1006.15
2017-12-16T09:15:44.975Z,1006.19
2017-12-16T09:16:44.965Z,1006.19
2017-12-16T09:17:44.954Z,1006.24
2017-12-16T09:18:44.943Z,1006.23
2017-12-16T09:19:44.933Z,1006.22
2017-12-16T09:20:44.923Z,1006.19
2017-12-16T09:21:44.912Z,1006.17
2017-12-16T09:22:44.898Z,1006.24
2017-12-16T09:23:44.893Z,1006.25
2017-12-16T09:24:44.879Z,1006.27
2017-12-16T09:25:44.869Z,1006.32
2017-12-16T09:26:44.859Z,1006.24
2017-12-16T09:27:44.850Z,1006.35
2017-12-16T09:28:44.841Z,1006.31
2017-12-16T09:29:44.830Z,1006.35
2017-12-16T09:30:44.826Z,1006.36
2017-12-16T09:31:44.817Z,1006.35
2017-12-16T09:32:44.808Z,1006.41
2017-12-16T09:33:44.797Z,1006.44
2017-12-16T09:34:44.789Z,1006.42
2017-12-16T09:35:44.780Z,1006.45
2017-12-16T09:36:44.771Z,1006.40
2017-12-16T09:37:44.761Z,1006.46
2017-12-16T09:38:44.747Z,1006.41
2017-12-16T09:39:44.739Z,1006.48
2017-12-16T09:40:44.730Z,1006.48
2017-12-16T09:41:44.720Z,1006.47
2017-12-16T09:42:44.715Z,1006.49
2017-12-16T09:43:44.705Z,1006.54
2017-12-16T09:44:44.698Z,1006.54
2017-12-16T09:45:44.688Z,1006.53
2017-12-16T09:46:44.678Z,1006.52
2017-12-16T09:47:44.667Z,1006.56
2017-12-16T09:48:44.658Z,1006.57
2017-12-16T09:49:44.650Z,1006.57
2017-12-16T09:50:44.640Z,1006.54
2017-12-16T09:51:44.631Z,1006.51
2017-12-16T09:52:44.624Z,1006.56
2017-12-16T09:53:44.612Z,1006.66
2017-12-16T09:54:44.608Z,1006.67
2017-12-16T09:55:44.599Z,1006.67
2017-12-16T09:56:44.591Z,1006.72
2017-12-16T09:57:44.582Z,1006.76
2017-12-16T09:58:44.573Z,1006.84
2017-12-16T09:59:44.628Z,1006.79
2017-12-16T10:00:44.559Z,1006.72
2017-12-16T10:01:44.551Z,1006.85
2017-12-16T10:02:44.541Z,1006.84
2017-12-16T10:03:44.536Z,1006.84
2017-12-16T10:04:44.527Z,1006.84
2017-12-16T10:05:44.521Z,1006.84
2017-12-16T10:06:44.521Z,1006.85
2017-12-16T10:07:44.510Z,1006.87
2017-12-16T10:08:44.506Z,1006.80
2017-12-16T10:09:44.500Z,1006.83
2017-12-16T10:10:44.502Z,1006.90
2017-12-16T10:11:44.496Z,1006.87
2017-12-16T10:12:44.492Z,1006.94
2017-12-16T10:13:44.487Z,1006.97
2017-12-16T10:14:44.542Z,1006.95
2017-12-16T10:15:44.481Z,1006.97
2017-12-16T10:16:44.477Z,1007.02
2017-12-16T10:17:44.474Z,1006.94
2017-12-16T10:18:44.466Z,1006.83
2017-12-16T10:19:44.465Z,1006.79
2017-12-16T10:20:44.463Z,1006.88
2017-12-16T10:21:44.460Z,1006.90
2017-12-16T10:22:44.458Z,1007.00
2017-12-16T10:23:44.456Z,1006.99
2017-12-16T10:24:44.454Z,1007.05
2017-12-16T10:25:44.451Z,1007.05
2017-12-16T10:26:44.452Z,1006.97
2017-12-16T10:27:44.452Z,1007.04
2017-12-16T10:28:44.448Z,1007.05
2017-12-16T10:29:44.445Z,1007.12
2017-12-16T10:30:44.444Z,1007.16
2017-12-16T10:31:44.441Z,1007.16
2017-12-16T10:32:44.442Z,1007.11
2017-12-16T10:33:44.439Z,1007.13
2017-12-16T10:34:44.433Z,1007.17
2017-12-16T10:35:44.435Z,1007.10
2017-12-16T10:36:44.434Z,1007.06
2017-12-16T10:37:44.431Z,1007.06
2017-12-16T10:38:44.433Z,1007.04
2017-12-16T10:39:44.430Z,1007.14
2017-12-16T10:40:44.429Z,1007.14
2017-12-16T10:41:44.428Z,1007.13
2017-12-16T10:42:44.431Z,1007.15
2017-12-16T10:43:44.432Z,1007.10
2017-12-16T10:44:44.430Z,1007.15
2017-12-16T10:45:44.431Z,1007.09
2017-12-16T10:46:44.425Z,1007.15
2017-12-16T10:47:44.429Z,1007.10
2017-12-16T10:48:44.426Z,1007.19
2017-12-16T10:49:44.424Z,1007.15
2017-12-16T10:50:44.428Z,1007.19
2017-12-16T10:51:44.429Z,1007.20
2017-12-16T10:52:44.430Z,1007.24
2017-12-16T10:53:44.427Z,1007.28
2017-12-16T10:54:44.428Z,1007.24
2017-12-16T10:55:44.429Z,1007.15
2017-12-16T10:56:44.429Z,1007.15
2017-12-16T10:57:44.432Z,1007.17
2017-12-16T10:58:44.424Z,1007.15
2017-12-16T10:59:44.425Z,1007.14
2017-12-16T11:00:44.424Z,1007.14
2017-12-16T11:01:44.425Z,1007.14
2017-12-16T11:02:44.423Z,1007.09
2017-12-16T11:03:44.426Z,1007.19
2017-12-16T11:04:44.423Z,1007.14
2017-12-16T11:05:44.422Z,1007.11
2017-12-16T11:06:44.424Z,1007.16
2017-12-16T11:07:44.423Z,1007.10
2017-12-16T11:08:44.422Z,1007.16
2017-12-16T11:09:44.420Z,1007.13
2017-12-16T11:10:44.421Z,1007.20
2017-12-16T11:11:44.417Z,1007.24
2017-12-16T11:12:44.414Z,1007.24
2017-12-16T11:13:44.411Z,1007.28
2017-12-16T11:14:44.405Z,1007.28
2017-12-16T11:15:44.402Z,1007.28
2017-12-16T11:16:44.399Z,1007.27
2017-12-16T11:17:44.395Z,1007.28
2017-12-16T11:18:44.407Z,1007.28
2017-12-16T11:19:44.392Z,1007.26
2017-12-16T11:20:44.391Z,1007.22
2017-12-16T11:21:44.386Z,1007.20
2017-12-16T11:22:44.389Z,1007.22
2017-12-16T11:23:44.387Z,1007.19
2017-12-16T11:24:44.385Z,1007.23
2017-12-16T11:25:44.381Z,1007.22
2017-12-16T11:26:44.379Z,1007.22
2017-12-16T11:27:44.377Z,1007.21
2017-12-16T11:28:44.376Z,1007.22
2017-12-16T11:29:44.371Z,1007.24
2017-12-16T11:30:44.362Z,1007.25
2017-12-16T11:31:44.361Z,1007.27
2017-12-16T11:32:44.365Z,1007.27
2017-12-16T11:33:44.353Z,1007.27
2017-12-16T11:34:44.353Z,1007.28
2017-12-16T11:35:44.348Z,1007.31
2017-12-16T11:36:44.343Z,1007.37
2017-12-16T11:37:44.338Z,1007.35
2017-12-16T11:38:44.341Z,1007.35
2017-12-16T11:39:44.337Z,1007.32
2017-12-16T11:40:44.333Z,1007.36
2017-12-16T11:41:44.328Z,1007.37
2017-12-16T11:42:44.324Z,1007.35
2017-12-16T11:43:44.320Z,1007.33
2017-12-16T11:44:44.316Z,1007.35
2017-12-16T11:45:44.309Z,1007.38
2017-12-16T11:46:44.302Z,1007.35
2017-12-16T11:47:44.296Z,1007.36
2017-12-16T11:48:44.295Z,1007.36
2017-12-16T11:49:44.287Z,1007.41
2017-12-16T11:50:44.285Z,1007.37
2017-12-16T11:51:44.280Z,1007.38
2017-12-16T11:52:44.275Z,1007.37
2017-12-16T11:53:44.268Z,1007.33
2017-12-16T11:54:44.258Z,1007.42
2017-12-16T11:55:44.254Z,1007.36
2017-12-16T11:56:44.246Z,1007.38
2017-12-16T11:57:44.244Z,1007.36
2017-12-16T11:58:44.234Z,1007.41
2017-12-16T11:59:44.229Z,1007.43
2017-12-16T12:00:44.223Z,1007.44
2017-12-16T12:01:44.215Z,1007.45
2017-12-16T12:02:44.214Z,1007.46
2017-12-16T12:03:44.209Z,1007.44
2017-12-16T12:04:44.202Z,1007.49
2017-12-16T12:05:44.196Z,1007.42
2017-12-16T12:06:44.190Z,1007.43
2017-12-16T12:07:44.183Z,1007.47
2017-12-16T12:08:44.179Z,1007.48